Portada
METAR-TAF:

METAR-TAF

Aeroports :

Orlhac, França

latitud: 44-53N, longitud: 002-25E, altitud: 639 m

Observació

L'informe es va fer fa 37 minuts, a les 20:00 UTC
Vent 3 kt del Oest/Nord-Oest
Temperatura -3°C
Humitat 100%
Pressió 1004 hPa
Visibilitat: 6000 m
Escasses núvols a una alçada de 1000 ft
Cel cobert a una alçada de 1700 ft

METAR: LFLW 222000Z AUTO 29003KT 6000 FEW010 OVC017 M03/M03 Q1004

Hora: 21:37 (20:37 UTC)

Pronòstic

L'informe es va fer fa 5 hores i 37 minuts, a les 15:00 UTC
Pronòstic vàlid del 22 a les 15 UTC al 22 a les 24 UTC
Vent 7 kt del Est
Visibilitat: 2000 m
Núvols disperses a una alçada de 1000 ft
Cel ennuvolat a una alçada de 1500 ft
Cel cobert a una alçada de 3000 ft
neu, boirina
Probabilitat 40% :
Temporalment
l' 22 a les 15 UTC al 22 a les 23 UTC
Visibilitat: 0900 m
boira

TAF: LFLW 221500Z 2215/2224 10007KT 2000 -SN BR SCT010 BKN015 OVC030 PROB40 TEMPO 2215/2223 0900 FG

Observacions i pronòstics meteorològics de més de 4000 aeroports (METAR i TAF).

Les estacions disponibles són els punts grocs i vermells al mapa.

Posi el ratolí al punt desitjat per veure el nom de l'estació.

Feu clic per veure les observacions i els pronòstics meteorològics.

Per canviar el mapa: feu clic els botons verds amb una creu de color negre per apropar; al botó verd amb un guió per allunyar la imatge; o en les fletxes verdes per a mapes adjacents.


METAR-TAF: